sensor_id;sensor_type;location;lat;lon;timestamp;P1;durP1;ratioP1;P2;durP2;ratioP2
74328;SDS011;62745;51.060;13.786;2022-10-16T00:01:29;14.18;;;9.88;;
74328;SDS011;62745;51.060;13.786;2022-10-16T00:03:56;13.80;;;9.48;;
74328;SDS011;62745;51.060;13.786;2022-10-16T00:06:23;12.50;;;8.25;;
74328;SDS011;62745;51.060;13.786;2022-10-16T00:08:49;13.45;;;9.63;;
74328;SDS011;62745;51.060;13.786;2022-10-16T00:11:16;15.55;;;9.70;;
74328;SDS011;62745;51.060;13.786;2022-10-16T00:13:44;15.50;;;8.70;;
74328;SDS011;62745;51.060;13.786;2022-10-16T00:16:11;12.43;;;8.80;;
74328;SDS011;62745;51.060;13.786;2022-10-16T00:18:37;16.67;;;9.48;;
74328;SDS011;62745;51.060;13.786;2022-10-16T00:21:07;13.35;;;8.95;;
74328;SDS011;62745;51.060;13.786;2022-10-16T00:23:35;13.40;;;9.27;;
74328;SDS011;62745;51.060;13.786;2022-10-16T00:26:02;12.95;;;9.23;;
74328;SDS011;62745;51.060;13.786;2022-10-16T00:28:30;12.95;;;8.32;;
74328;SDS011;62745;51.060;13.786;2022-10-16T00:30:56;15.77;;;9.43;;
74328;SDS011;62745;51.060;13.786;2022-10-16T00:33:21;13.48;;;9.02;;
74328;SDS011;62745;51.060;13.786;2022-10-16T00:35:47;11.68;;;7.75;;
74328;SDS011;62745;51.060;13.786;2022-10-16T00:38:13;12.85;;;8.93;;
74328;SDS011;62745;51.060;13.786;2022-10-16T00:40:39;12.05;;;7.85;;
74328;SDS011;62745;51.060;13.786;2022-10-16T00:46:11;13.52;;;9.27;;
74328;SDS011;62745;51.060;13.786;2022-10-16T00:48:40;12.00;;;8.63;;
74328;SDS011;62745;51.060;13.786;2022-10-16T00:51:10;13.60;;;8.93;;
74328;SDS011;62745;51.060;13.786;2022-10-16T00:53:35;12.55;;;8.95;;
74328;SDS011;62745;51.060;13.786;2022-10-16T00:56:01;12.80;;;7.90;;
74328;SDS011;62745;51.060;13.786;2022-10-16T00:58:27;12.63;;;8.63;;
74328;SDS011;62745;51.060;13.786;2022-10-16T01:00:52;12.43;;;7.90;;
74328;SDS011;62745;51.060;13.786;2022-10-16T01:03:22;11.27;;;7.73;;
74328;SDS011;62745;51.060;13.786;2022-10-16T01:05:59;11.95;;;7.70;;
74328;SDS011;62745;51.060;13.786;2022-10-16T01:08:44;10.93;;;7.30;;
74328;SDS011;62745;51.060;13.786;2022-10-16T01:11:43;11.93;;;8.10;;
74328;SDS011;62745;51.060;13.786;2022-10-16T01:14:15;11.57;;;7.95;;
74328;SDS011;62745;51.060;13.786;2022-10-16T01:17:23;11.65;;;8.07;;
74328;SDS011;62745;51.060;13.786;2022-10-16T01:23:04;10.93;;;7.80;;
74328;SDS011;62745;51.060;13.786;2022-10-16T01:28:05;11.70;;;7.20;;
74328;SDS011;62745;51.060;13.786;2022-10-16T01:30:36;12.05;;;8.73;;
74328;SDS011;62745;51.060;13.786;2022-10-16T01:33:05;11.93;;;7.28;;
74328;SDS011;62745;51.060;13.786;2022-10-16T01:35:41;10.93;;;7.10;;
74328;SDS011;62745;51.060;13.786;2022-10-16T01:38:25;12.77;;;8.52;;
74328;SDS011;62745;51.060;13.786;2022-10-16T01:41:00;12.68;;;8.93;;
74328;SDS011;62745;51.060;13.786;2022-10-16T01:43:28;11.13;;;7.90;;
74328;SDS011;62745;51.060;13.786;2022-10-16T01:45:59;11.55;;;7.88;;
74328;SDS011;62745;51.060;13.786;2022-10-16T01:48:26;12.50;;;8.98;;
74328;SDS011;62745;51.060;13.786;2022-10-16T01:51:02;12.75;;;9.02;;
74328;SDS011;62745;51.060;13.786;2022-10-16T01:53:31;12.68;;;8.90;;
74328;SDS011;62745;51.060;13.786;2022-10-16T01:55:57;15.18;;;9.82;;
74328;SDS011;62745;51.060;13.786;2022-10-16T01:58:25;11.45;;;8.13;;
74328;SDS011;62745;51.060;13.786;2022-10-16T02:00:52;12.60;;;9.27;;
74328;SDS011;62745;51.060;13.786;2022-10-16T02:03:19;15.18;;;9.95;;
74328;SDS011;62745;51.060;13.786;2022-10-16T02:05:46;15.13;;;9.98;;
74328;SDS011;62745;51.060;13.786;2022-10-16T02:08:18;13.80;;;9.30;;
74328;SDS011;62745;51.060;13.786;2022-10-16T02:10:44;15.07;;;9.60;;
74328;SDS011;62745;51.060;13.786;2022-10-16T02:13:11;13.75;;;9.63;;
74328;SDS011;62745;51.060;13.786;2022-10-16T02:15:41;15.30;;;11.20;;
74328;SDS011;62745;51.060;13.786;2022-10-16T02:18:07;14.95;;;10.52;;
74328;SDS011;62745;51.060;13.786;2022-10-16T02:20:36;14.23;;;10.23;;
74328;SDS011;62745;51.060;13.786;2022-10-16T02:23:24;14.50;;;9.88;;
74328;SDS011;62745;51.060;13.786;2022-10-16T02:25:58;13.90;;;9.95;;
74328;SDS011;62745;51.060;13.786;2022-10-16T02:28:30;13.55;;;9.90;;
74328;SDS011;62745;51.060;13.786;2022-10-16T02:31:03;14.68;;;10.73;;
74328;SDS011;62745;51.060;13.786;2022-10-16T02:33:31;15.70;;;8.98;;
74328;SDS011;62745;51.060;13.786;2022-10-16T02:35:59;16.17;;;8.90;;
74328;SDS011;62745;51.060;13.786;2022-10-16T02:38:24;14.30;;;10.25;;
74328;SDS011;62745;51.060;13.786;2022-10-16T02:40:50;14.55;;;9.77;;
74328;SDS011;62745;51.060;13.786;2022-10-16T02:43:16;13.10;;;9.68;;
74328;SDS011;62745;51.060;13.786;2022-10-16T02:45:42;11.57;;;8.15;;
74328;SDS011;62745;51.060;13.786;2022-10-16T02:48:07;11.38;;;7.82;;
74328;SDS011;62745;51.060;13.786;2022-10-16T02:50:33;14.77;;;10.23;;
74328;SDS011;62745;51.060;13.786;2022-10-16T02:52:58;12.40;;;9.02;;
74328;SDS011;62745;51.060;13.786;2022-10-16T02:55:23;12.35;;;8.55;;
74328;SDS011;62745;51.060;13.786;2022-10-16T02:57:49;12.73;;;8.48;;
74328;SDS011;62745;51.060;13.786;2022-10-16T03:00:15;11.90;;;8.88;;
74328;SDS011;62745;51.060;13.786;2022-10-16T03:02:42;12.02;;;8.30;;
74328;SDS011;62745;51.060;13.786;2022-10-16T03:05:08;12.60;;;8.38;;
74328;SDS011;62745;51.060;13.786;2022-10-16T03:07:34;11.70;;;8.13;;
74328;SDS011;62745;51.060;13.786;2022-10-16T03:09:59;12.73;;;8.20;;
74328;SDS011;62745;51.060;13.786;2022-10-16T03:12:28;10.82;;;7.43;;
74328;SDS011;62745;51.060;13.786;2022-10-16T03:14:54;12.18;;;8.45;;
74328;SDS011;62745;51.060;13.786;2022-10-16T03:17:21;14.88;;;8.82;;
74328;SDS011;62745;51.060;13.786;2022-10-16T03:19:46;12.93;;;8.13;;
74328;SDS011;62745;51.060;13.786;2022-10-16T03:22:12;11.40;;;8.33;;
74328;SDS011;62745;51.060;13.786;2022-10-16T03:24:37;13.17;;;7.83;;
74328;SDS011;62745;51.060;13.786;2022-10-16T03:27:02;10.90;;;7.47;;
74328;SDS011;62745;51.060;13.786;2022-10-16T03:29:27;10.80;;;8.33;;
74328;SDS011;62745;51.060;13.786;2022-10-16T03:31:54;11.82;;;7.57;;
74328;SDS011;62745;51.060;13.786;2022-10-16T03:34:20;11.05;;;7.88;;
74328;SDS011;62745;51.060;13.786;2022-10-16T03:36:46;12.18;;;9.20;;
74328;SDS011;62745;51.060;13.786;2022-10-16T03:39:11;11.73;;;7.53;;
74328;SDS011;62745;51.060;13.786;2022-10-16T03:41:37;12.85;;;8.73;;
74328;SDS011;62745;51.060;13.786;2022-10-16T03:44:02;15.70;;;9.43;;
74328;SDS011;62745;51.060;13.786;2022-10-16T03:46:27;11.73;;;8.95;;
74328;SDS011;62745;51.060;13.786;2022-10-16T03:48:52;10.97;;;8.47;;
74328;SDS011;62745;51.060;13.786;2022-10-16T03:51:18;11.23;;;8.40;;
74328;SDS011;62745;51.060;13.786;2022-10-16T03:53:43;12.27;;;9.10;;
74328;SDS011;62745;51.060;13.786;2022-10-16T03:56:08;12.10;;;8.87;;
74328;SDS011;62745;51.060;13.786;2022-10-16T03:58:34;11.07;;;7.75;;
74328;SDS011;62745;51.060;13.786;2022-10-16T04:00:59;11.57;;;9.07;;
74328;SDS011;62745;51.060;13.786;2022-10-16T04:03:24;11.33;;;8.27;;
74328;SDS011;62745;51.060;13.786;2022-10-16T04:05:49;11.60;;;8.50;;
74328;SDS011;62745;51.060;13.786;2022-10-16T04:08:15;12.13;;;8.65;;
74328;SDS011;62745;51.060;13.786;2022-10-16T04:10:42;11.95;;;8.40;;
74328;SDS011;62745;51.060;13.786;2022-10-16T04:13:08;12.38;;;9.00;;
74328;SDS011;62745;51.060;13.786;2022-10-16T04:15:33;12.65;;;8.82;;
74328;SDS011;62745;51.060;13.786;2022-10-16T04:17:58;12.20;;;8.03;;
74328;SDS011;62745;51.060;13.786;2022-10-16T04:20:24;11.23;;;8.40;;
74328;SDS011;62745;51.060;13.786;2022-10-16T04:22:49;12.32;;;9.10;;
74328;SDS011;62745;51.060;13.786;2022-10-16T04:25:14;12.70;;;9.33;;
74328;SDS011;62745;51.060;13.786;2022-10-16T04:27:40;11.55;;;9.63;;
74328;SDS011;62745;51.060;13.786;2022-10-16T04:30:05;13.10;;;8.68;;
74328;SDS011;62745;51.060;13.786;2022-10-16T04:32:31;13.43;;;8.65;;
74328;SDS011;62745;51.060;13.786;2022-10-16T04:34:56;13.77;;;10.13;;
74328;SDS011;62745;51.060;13.786;2022-10-16T04:37:25;15.48;;;9.60;;
74328;SDS011;62745;51.060;13.786;2022-10-16T04:39:51;13.43;;;9.85;;
74328;SDS011;62745;51.060;13.786;2022-10-16T04:42:17;12.77;;;9.63;;
74328;SDS011;62745;51.060;13.786;2022-10-16T04:44:42;13.80;;;9.23;;
74328;SDS011;62745;51.060;13.786;2022-10-16T04:47:08;12.95;;;9.32;;
74328;SDS011;62745;51.060;13.786;2022-10-16T04:49:33;13.73;;;9.68;;
74328;SDS011;62745;51.060;13.786;2022-10-16T04:51:58;13.00;;;9.60;;
74328;SDS011;62745;51.060;13.786;2022-10-16T04:54:23;17.37;;;10.17;;
74328;SDS011;62745;51.060;13.786;2022-10-16T04:56:49;13.65;;;10.05;;
74328;SDS011;62745;51.060;13.786;2022-10-16T04:59:16;14.57;;;10.18;;
74328;SDS011;62745;51.060;13.786;2022-10-16T05:01:43;12.43;;;9.45;;
74328;SDS011;62745;51.060;13.786;2022-10-16T05:04:09;14.45;;;9.73;;
74328;SDS011;62745;51.060;13.786;2022-10-16T05:06:34;13.48;;;10.40;;
74328;SDS011;62745;51.060;13.786;2022-10-16T05:08:59;12.77;;;8.57;;
74328;SDS011;62745;51.060;13.786;2022-10-16T05:11:25;12.85;;;9.68;;
74328;SDS011;62745;51.060;13.786;2022-10-16T05:13:50;14.40;;;9.77;;
74328;SDS011;62745;51.060;13.786;2022-10-16T05:16:16;13.43;;;9.33;;
74328;SDS011;62745;51.060;13.786;2022-10-16T05:18:41;11.98;;;9.00;;
74328;SDS011;62745;51.060;13.786;2022-10-16T05:21:06;12.40;;;8.30;;
74328;SDS011;62745;51.060;13.786;2022-10-16T05:23:32;12.15;;;9.80;;
74328;SDS011;62745;51.060;13.786;2022-10-16T05:25:57;14.02;;;8.65;;
74328;SDS011;62745;51.060;13.786;2022-10-16T05:28:26;11.25;;;8.05;;
74328;SDS011;62745;51.060;13.786;2022-10-16T05:30:55;11.85;;;9.00;;
74328;SDS011;62745;51.060;13.786;2022-10-16T05:33:22;11.50;;;8.77;;
74328;SDS011;62745;51.060;13.786;2022-10-16T05:35:50;11.82;;;8.30;;
74328;SDS011;62745;51.060;13.786;2022-10-16T05:38:16;11.98;;;8.40;;
74328;SDS011;62745;51.060;13.786;2022-10-16T05:40:42;12.60;;;8.85;;
74328;SDS011;62745;51.060;13.786;2022-10-16T05:43:08;10.95;;;8.57;;
74328;SDS011;62745;51.060;13.786;2022-10-16T05:45:33;10.93;;;8.52;;
74328;SDS011;62745;51.060;13.786;2022-10-16T05:47:59;11.03;;;8.10;;
74328;SDS011;62745;51.060;13.786;2022-10-16T05:50:25;10.88;;;9.02;;
74328;SDS011;62745;51.060;13.786;2022-10-16T05:52:50;13.20;;;8.52;;
74328;SDS011;62745;51.060;13.786;2022-10-16T05:55:16;11.63;;;8.30;;
74328;SDS011;62745;51.060;13.786;2022-10-16T05:57:41;13.23;;;8.18;;
74328;SDS011;62745;51.060;13.786;2022-10-16T06:00:06;13.30;;;9.40;;
74328;SDS011;62745;51.060;13.786;2022-10-16T06:02:32;11.95;;;8.25;;
74328;SDS011;62745;51.060;13.786;2022-10-16T06:04:57;12.27;;;9.02;;
74328;SDS011;62745;51.060;13.786;2022-10-16T06:07:23;11.13;;;8.03;;
74328;SDS011;62745;51.060;13.786;2022-10-16T06:09:49;12.68;;;9.82;;
74328;SDS011;62745;51.060;13.786;2022-10-16T06:12:15;13.45;;;9.40;;
74328;SDS011;62745;51.060;13.786;2022-10-16T06:14:41;12.40;;;9.25;;
74328;SDS011;62745;51.060;13.786;2022-10-16T06:17:06;12.63;;;9.90;;
74328;SDS011;62745;51.060;13.786;2022-10-16T06:19:31;12.40;;;9.83;;
74328;SDS011;62745;51.060;13.786;2022-10-16T06:21:57;12.73;;;9.33;;
74328;SDS011;62745;51.060;13.786;2022-10-16T06:24:23;13.65;;;9.77;;
74328;SDS011;62745;51.060;13.786;2022-10-16T06:26:49;12.88;;;9.45;;
74328;SDS011;62745;51.060;13.786;2022-10-16T06:29:14;14.23;;;9.52;;
74328;SDS011;62745;51.060;13.786;2022-10-16T06:31:39;15.15;;;10.40;;
74328;SDS011;62745;51.060;13.786;2022-10-16T06:34:05;14.73;;;9.13;;
74328;SDS011;62745;51.060;13.786;2022-10-16T06:36:34;14.82;;;11.00;;
74328;SDS011;62745;51.060;13.786;2022-10-16T06:38:59;15.98;;;11.35;;
74328;SDS011;62745;51.060;13.786;2022-10-16T06:41:25;17.37;;;11.63;;
74328;SDS011;62745;51.060;13.786;2022-10-16T06:43:50;15.80;;;11.37;;
74328;SDS011;62745;51.060;13.786;2022-10-16T06:46:18;16.30;;;11.52;;
74328;SDS011;62745;51.060;13.786;2022-10-16T06:48:46;18.58;;;12.48;;
74328;SDS011;62745;51.060;13.786;2022-10-16T06:51:12;16.45;;;12.50;;
74328;SDS011;62745;51.060;13.786;2022-10-16T06:53:40;16.20;;;12.35;;
74328;SDS011;62745;51.060;13.786;2022-10-16T06:58:33;14.70;;;11.10;;
74328;SDS011;62745;51.060;13.786;2022-10-16T07:00:58;15.30;;;10.53;;
74328;SDS011;62745;51.060;13.786;2022-10-16T07:03:24;14.52;;;10.57;;
74328;SDS011;62745;51.060;13.786;2022-10-16T07:05:49;16.77;;;11.33;;
74328;SDS011;62745;51.060;13.786;2022-10-16T07:08:14;14.93;;;10.88;;
74328;SDS011;62745;51.060;13.786;2022-10-16T07:10:40;15.75;;;10.88;;
74328;SDS011;62745;51.060;13.786;2022-10-16T07:13:05;17.20;;;10.60;;
74328;SDS011;62745;51.060;13.786;2022-10-16T07:15:32;14.65;;;11.15;;
74328;SDS011;62745;51.060;13.786;2022-10-16T07:17:58;14.20;;;11.23;;
74328;SDS011;62745;51.060;13.786;2022-10-16T07:20:23;15.97;;;10.87;;
74328;SDS011;62745;51.060;13.786;2022-10-16T07:22:48;16.23;;;10.30;;
74328;SDS011;62745;51.060;13.786;2022-10-16T07:25:13;14.40;;;10.67;;
74328;SDS011;62745;51.060;13.786;2022-10-16T07:27:39;13.32;;;9.80;;
74328;SDS011;62745;51.060;13.786;2022-10-16T07:30:04;13.83;;;10.57;;
74328;SDS011;62745;51.060;13.786;2022-10-16T07:32:31;12.75;;;9.43;;
74328;SDS011;62745;51.060;13.786;2022-10-16T07:34:56;14.30;;;9.48;;
74328;SDS011;62745;51.060;13.786;2022-10-16T07:37:21;12.27;;;9.88;;
74328;SDS011;62745;51.060;13.786;2022-10-16T07:39:47;11.17;;;8.77;;
74328;SDS011;62745;51.060;13.786;2022-10-16T07:42:12;14.65;;;9.88;;
74328;SDS011;62745;51.060;13.786;2022-10-16T07:44:38;13.80;;;9.38;;
74328;SDS011;62745;51.060;13.786;2022-10-16T07:47:03;11.27;;;9.77;;
74328;SDS011;62745;51.060;13.786;2022-10-16T07:49:28;12.93;;;9.23;;
74328;SDS011;62745;51.060;13.786;2022-10-16T07:51:53;13.37;;;10.07;;
74328;SDS011;62745;51.060;13.786;2022-10-16T07:54:19;12.27;;;8.33;;
74328;SDS011;62745;51.060;13.786;2022-10-16T07:56:44;13.27;;;8.27;;
74328;SDS011;62745;51.060;13.786;2022-10-16T07:59:09;10.83;;;8.27;;
74328;SDS011;62745;51.060;13.786;2022-10-16T08:01:35;12.30;;;8.65;;
74328;SDS011;62745;51.060;13.786;2022-10-16T08:04:00;12.27;;;8.93;;
74328;SDS011;62745;51.060;13.786;2022-10-16T08:06:25;12.98;;;8.95;;
74328;SDS011;62745;51.060;13.786;2022-10-16T08:08:51;11.63;;;9.48;;
74328;SDS011;62745;51.060;13.786;2022-10-16T08:11:16;10.95;;;8.25;;
74328;SDS011;62745;51.060;13.786;2022-10-16T08:13:41;9.93;;;7.93;;
74328;SDS011;62745;51.060;13.786;2022-10-16T08:16:07;10.57;;;7.55;;
74328;SDS011;62745;51.060;13.786;2022-10-16T08:18:37;10.35;;;7.57;;
74328;SDS011;62745;51.060;13.786;2022-10-16T08:21:04;9.80;;;8.27;;
74328;SDS011;62745;51.060;13.786;2022-10-16T08:23:30;9.13;;;7.72;;
74328;SDS011;62745;51.060;13.786;2022-10-16T08:26:01;9.85;;;7.43;;
74328;SDS011;62745;51.060;13.786;2022-10-16T08:28:29;11.30;;;6.75;;
74328;SDS011;62745;51.060;13.786;2022-10-16T08:30:55;11.37;;;7.10;;
74328;SDS011;62745;51.060;13.786;2022-10-16T08:33:21;9.05;;;6.55;;
74328;SDS011;62745;51.060;13.786;2022-10-16T08:35:53;9.68;;;6.47;;
74328;SDS011;62745;51.060;13.786;2022-10-16T08:38:19;11.50;;;6.10;;
74328;SDS011;62745;51.060;13.786;2022-10-16T08:40:44;11.18;;;6.65;;
74328;SDS011;62745;51.060;13.786;2022-10-16T08:48:35;6.85;;;5.00;;
74328;SDS011;62745;51.060;13.786;2022-10-16T08:51:03;8.60;;;5.20;;
74328;SDS011;62745;51.060;13.786;2022-10-16T08:54:03;8.93;;;5.53;;
74328;SDS011;62745;51.060;13.786;2022-10-16T08:56:26;6.88;;;5.30;;
74328;SDS011;62745;51.060;13.786;2022-10-16T08:58:53;6.75;;;5.07;;
74328;SDS011;62745;51.060;13.786;2022-10-16T09:01:20;8.13;;;5.95;;
74328;SDS011;62745;51.060;13.786;2022-10-16T09:03:57;7.03;;;5.78;;
74328;SDS011;62745;51.060;13.786;2022-10-16T09:06:46;7.82;;;5.20;;
74328;SDS011;62745;51.060;13.786;2022-10-16T09:16:59;7.60;;;5.90;;
74328;SDS011;62745;51.060;13.786;2022-10-16T09:19:34;7.03;;;5.47;;
74328;SDS011;62745;51.060;13.786;2022-10-16T09:22:10;7.80;;;5.40;;
74328;SDS011;62745;51.060;13.786;2022-10-16T09:24:39;6.43;;;5.13;;
74328;SDS011;62745;51.060;13.786;2022-10-16T09:27:04;7.60;;;5.87;;
74328;SDS011;62745;51.060;13.786;2022-10-16T09:29:35;7.18;;;5.40;;
74328;SDS011;62745;51.060;13.786;2022-10-16T09:32:07;10.40;;;5.67;;
74328;SDS011;62745;51.060;13.786;2022-10-16T09:34:49;6.47;;;5.20;;
74328;SDS011;62745;51.060;13.786;2022-10-16T09:37:18;6.43;;;5.20;;
74328;SDS011;62745;51.060;13.786;2022-10-16T09:39:51;7.10;;;5.00;;
74328;SDS011;62745;51.060;13.786;2022-10-16T09:42:19;6.78;;;5.00;;
74328;SDS011;62745;51.060;13.786;2022-10-16T09:44:49;6.80;;;4.57;;
74328;SDS011;62745;51.060;13.786;2022-10-16T09:47:17;6.43;;;4.50;;
74328;SDS011;62745;51.060;13.786;2022-10-16T09:49:56;7.28;;;3.97;;
74328;SDS011;62745;51.060;13.786;2022-10-16T09:52:29;6.10;;;4.10;;
74328;SDS011;62745;51.060;13.786;2022-10-16T09:54:56;5.47;;;4.13;;
74328;SDS011;62745;51.060;13.786;2022-10-16T09:57:23;6.85;;;4.65;;
74328;SDS011;62745;51.060;13.786;2022-10-16T09:59:52;6.15;;;4.10;;
74328;SDS011;62745;51.060;13.786;2022-10-16T10:02:42;6.70;;;4.53;;
74328;SDS011;62745;51.060;13.786;2022-10-16T10:05:17;5.47;;;3.88;;
74328;SDS011;62745;51.060;13.786;2022-10-16T10:07:45;6.53;;;4.15;;
74328;SDS011;62745;51.060;13.786;2022-10-16T10:10:21;7.30;;;3.85;;
74328;SDS011;62745;51.060;13.786;2022-10-16T10:12:48;6.07;;;3.90;;
74328;SDS011;62745;51.060;13.786;2022-10-16T10:15:14;6.72;;;3.45;;
74328;SDS011;62745;51.060;13.786;2022-10-16T10:17:47;4.13;;;2.50;;
74328;SDS011;62745;51.060;13.786;2022-10-16T10:22:48;5.10;;;2.67;;
74328;SDS011;62745;51.060;13.786;2022-10-16T10:27:45;4.60;;;2.53;;
74328;SDS011;62745;51.060;13.786;2022-10-16T10:33:27;3.60;;;2.10;;
74328;SDS011;62745;51.060;13.786;2022-10-16T10:38:30;4.10;;;2.23;;
74328;SDS011;62745;51.060;13.786;2022-10-16T10:49:43;3.28;;;1.40;;
74328;SDS011;62745;51.060;13.786;2022-10-16T10:55:23;2.03;;;0.70;;
74328;SDS011;62745;51.060;13.786;2022-10-16T11:00:57;4.25;;;1.50;;
74328;SDS011;62745;51.060;13.786;2022-10-16T11:09:01;1.83;;;0.75;;
74328;SDS011;62745;51.060;13.786;2022-10-16T11:11:36;2.13;;;0.90;;
74328;SDS011;62745;51.060;13.786;2022-10-16T11:14:14;1.80;;;0.70;;
74328;SDS011;62745;51.060;13.786;2022-10-16T11:16:48;1.77;;;0.68;;
74328;SDS011;62745;51.060;13.786;2022-10-16T11:19:25;1.13;;;0.57;;
74328;SDS011;62745;51.060;13.786;2022-10-16T11:30:18;3.63;;;0.80;;
74328;SDS011;62745;51.060;13.786;2022-10-16T11:35:23;1.98;;;0.70;;
74328;SDS011;62745;51.060;13.786;2022-10-16T11:37:53;1.52;;;0.60;;
74328;SDS011;62745;51.060;13.786;2022-10-16T11:40:24;1.80;;;0.70;;
74328;SDS011;62745;51.060;13.786;2022-10-16T11:42:54;1.02;;;0.55;;
74328;SDS011;62745;51.060;13.786;2022-10-16T11:45:30;3.13;;;0.68;;
74328;SDS011;62745;51.060;13.786;2022-10-16T11:51:09;1.20;;;0.60;;
74328;SDS011;62745;51.060;13.786;2022-10-16T11:56:19;0.90;;;0.60;;
74328;SDS011;62745;51.060;13.786;2022-10-16T12:01:41;1.27;;;0.55;;
74328;SDS011;62745;51.060;13.786;2022-10-16T12:04:31;1.83;;;0.70;;
74328;SDS011;62745;51.060;13.786;2022-10-16T12:07:08;1.80;;;0.60;;
74328;SDS011;62745;51.060;13.786;2022-10-16T12:09:37;1.27;;;0.57;;
74328;SDS011;62745;51.060;13.786;2022-10-16T12:12:05;0.98;;;0.52;;
74328;SDS011;62745;51.060;13.786;2022-10-16T12:14:59;1.17;;;0.68;;
74328;SDS011;62745;51.060;13.786;2022-10-16T12:17:42;1.70;;;0.70;;
74328;SDS011;62745;51.060;13.786;2022-10-16T12:22:49;3.03;;;0.90;;
74328;SDS011;62745;51.060;13.786;2022-10-16T12:25:25;2.10;;;0.93;;
74328;SDS011;62745;51.060;13.786;2022-10-16T12:27:57;2.80;;;0.73;;
74328;SDS011;62745;51.060;13.786;2022-10-16T12:30:24;1.83;;;0.85;;
74328;SDS011;62745;51.060;13.786;2022-10-16T12:32:59;1.60;;;0.80;;
74328;SDS011;62745;51.060;13.786;2022-10-16T12:35:27;2.88;;;0.90;;
74328;SDS011;62745;51.060;13.786;2022-10-16T12:38:12;1.95;;;0.80;;
74328;SDS011;62745;51.060;13.786;2022-10-16T12:40:41;2.30;;;0.85;;
74328;SDS011;62745;51.060;13.786;2022-10-16T12:43:12;1.05;;;0.60;;
74328;SDS011;62745;51.060;13.786;2022-10-16T12:45:59;1.77;;;0.90;;
74328;SDS011;62745;51.060;13.786;2022-10-16T12:48:30;2.00;;;0.88;;
74328;SDS011;62745;51.060;13.786;2022-10-16T12:50:55;3.28;;;0.88;;
74328;SDS011;62745;51.060;13.786;2022-10-16T12:53:22;3.05;;;0.90;;
74328;SDS011;62745;51.060;13.786;2022-10-16T12:58:37;2.80;;;0.70;;
74328;SDS011;62745;51.060;13.786;2022-10-16T13:19:00;2.92;;;1.00;;
74328;SDS011;62745;51.060;13.786;2022-10-16T13:24:42;1.55;;;0.70;;
74328;SDS011;62745;51.060;13.786;2022-10-16T13:27:33;1.73;;;0.73;;
74328;SDS011;62745;51.060;13.786;2022-10-16T13:32:46;2.03;;;0.77;;
74328;SDS011;62745;51.060;13.786;2022-10-16T13:35:23;1.92;;;0.90;;
74328;SDS011;62745;51.060;13.786;2022-10-16T13:37:51;2.53;;;0.70;;
74328;SDS011;62745;51.060;13.786;2022-10-16T13:40:27;2.20;;;0.70;;
74328;SDS011;62745;51.060;13.786;2022-10-16T13:42:52;2.17;;;0.70;;
74328;SDS011;62745;51.060;13.786;2022-10-16T13:45:22;4.18;;;0.95;;
74328;SDS011;62745;51.060;13.786;2022-10-16T13:48:02;2.08;;;0.88;;
74328;SDS011;62745;51.060;13.786;2022-10-16T13:50:31;2.00;;;0.80;;
74328;SDS011;62745;51.060;13.786;2022-10-16T13:53:06;3.28;;;0.77;;
74328;SDS011;62745;51.060;13.786;2022-10-16T13:55:37;2.65;;;0.90;;
74328;SDS011;62745;51.060;13.786;2022-10-16T13:58:12;1.85;;;0.80;;
74328;SDS011;62745;51.060;13.786;2022-10-16T14:00:39;4.18;;;0.90;;
74328;SDS011;62745;51.060;13.786;2022-10-16T14:03:06;2.92;;;0.68;;
74328;SDS011;62745;51.060;13.786;2022-10-16T14:05:42;1.85;;;0.80;;
74328;SDS011;62745;51.060;13.786;2022-10-16T14:08:15;5.63;;;0.98;;
74328;SDS011;62745;51.060;13.786;2022-10-16T14:10:40;2.33;;;0.80;;
74328;SDS011;62745;51.060;13.786;2022-10-16T14:13:06;2.78;;;0.80;;
74328;SDS011;62745;51.060;13.786;2022-10-16T14:15:34;3.15;;;0.90;;
74328;SDS011;62745;51.060;13.786;2022-10-16T14:18:01;3.38;;;0.80;;
74328;SDS011;62745;51.060;13.786;2022-10-16T14:20:29;2.55;;;0.90;;
74328;SDS011;62745;51.060;13.786;2022-10-16T14:23:03;1.60;;;0.80;;
74328;SDS011;62745;51.060;13.786;2022-10-16T14:25:44;3.88;;;0.90;;
74328;SDS011;62745;51.060;13.786;2022-10-16T14:30:48;2.08;;;0.80;;
74328;SDS011;62745;51.060;13.786;2022-10-16T14:33:24;2.28;;;0.85;;
74328;SDS011;62745;51.060;13.786;2022-10-16T14:35:59;3.40;;;1.00;;
74328;SDS011;62745;51.060;13.786;2022-10-16T14:38:36;4.70;;;1.10;;
74328;SDS011;62745;51.060;13.786;2022-10-16T14:41:04;2.35;;;1.00;;
74328;SDS011;62745;51.060;13.786;2022-10-16T14:46:01;3.15;;;0.90;;
74328;SDS011;62745;51.060;13.786;2022-10-16T14:48:28;2.33;;;0.90;;
74328;SDS011;62745;51.060;13.786;2022-10-16T14:50:54;3.10;;;1.00;;
74328;SDS011;62745;51.060;13.786;2022-10-16T14:53:20;5.00;;;1.00;;
74328;SDS011;62745;51.060;13.786;2022-10-16T14:55:45;3.60;;;1.10;;
74328;SDS011;62745;51.060;13.786;2022-10-16T14:58:18;3.33;;;1.23;;
74328;SDS011;62745;51.060;13.786;2022-10-16T15:00:45;3.53;;;1.00;;
74328;SDS011;62745;51.060;13.786;2022-10-16T15:03:10;4.55;;;1.05;;
74328;SDS011;62745;51.060;13.786;2022-10-16T15:05:36;2.03;;;0.90;;
74328;SDS011;62745;51.060;13.786;2022-10-16T15:08:01;4.80;;;1.10;;
74328;SDS011;62745;51.060;13.786;2022-10-16T15:10:27;3.53;;;1.15;;
74328;SDS011;62745;51.060;13.786;2022-10-16T15:12:54;2.80;;;1.05;;
74328;SDS011;62745;51.060;13.786;2022-10-16T15:17:47;4.85;;;1.30;;
74328;SDS011;62745;51.060;13.786;2022-10-16T15:20:13;3.15;;;1.13;;
74328;SDS011;62745;51.060;13.786;2022-10-16T15:22:38;3.20;;;1.17;;
74328;SDS011;62745;51.060;13.786;2022-10-16T15:25:09;4.23;;;1.10;;
74328;SDS011;62745;51.060;13.786;2022-10-16T15:27:51;2.85;;;1.08;;
74328;SDS011;62745;51.060;13.786;2022-10-16T15:30:16;6.97;;;1.20;;
74328;SDS011;62745;51.060;13.786;2022-10-16T15:32:42;2.70;;;1.03;;
74328;SDS011;62745;51.060;13.786;2022-10-16T15:35:08;4.30;;;1.10;;
74328;SDS011;62745;51.060;13.786;2022-10-16T15:37:34;3.75;;;1.55;;
74328;SDS011;62745;51.060;13.786;2022-10-16T15:39:59;5.72;;;1.60;;
74328;SDS011;62745;51.060;13.786;2022-10-16T15:42:25;1.90;;;1.00;;
74328;SDS011;62745;51.060;13.786;2022-10-16T15:44:50;4.57;;;1.27;;
74328;SDS011;62745;51.060;13.786;2022-10-16T15:47:15;3.67;;;1.23;;
74328;SDS011;62745;51.060;13.786;2022-10-16T15:49:40;3.90;;;1.30;;
74328;SDS011;62745;51.060;13.786;2022-10-16T15:52:06;3.17;;;1.02;;
74328;SDS011;62745;51.060;13.786;2022-10-16T15:54:31;4.57;;;1.52;;
74328;SDS011;62745;51.060;13.786;2022-10-16T15:56:56;3.63;;;1.48;;
74328;SDS011;62745;51.060;13.786;2022-10-16T15:59:22;5.13;;;1.00;;
74328;SDS011;62745;51.060;13.786;2022-10-16T16:01:47;4.33;;;1.50;;
74328;SDS011;62745;51.060;13.786;2022-10-16T16:04:12;3.20;;;1.50;;
74328;SDS011;62745;51.060;13.786;2022-10-16T16:06:37;4.47;;;1.50;;
74328;SDS011;62745;51.060;13.786;2022-10-16T16:09:04;4.35;;;1.40;;
74328;SDS011;62745;51.060;13.786;2022-10-16T16:11:30;5.60;;;1.70;;
74328;SDS011;62745;51.060;13.786;2022-10-16T16:13:56;4.68;;;1.73;;
74328;SDS011;62745;51.060;13.786;2022-10-16T16:16:22;3.88;;;1.92;;
74328;SDS011;62745;51.060;13.786;2022-10-16T16:18:47;5.28;;;2.28;;
74328;SDS011;62745;51.060;13.786;2022-10-16T16:21:14;4.63;;;1.95;;
74328;SDS011;62745;51.060;13.786;2022-10-16T16:23:39;5.47;;;2.30;;
74328;SDS011;62745;51.060;13.786;2022-10-16T16:31:12;4.15;;;1.95;;